Time;durP1;ratioP1;P1;durP2;ratioP2;P2;SDS_P1;SDS_P2;PMS_P1;PMS_P2;Temp;Humidity;BMP_temperature;BMP_pressure;BME280_temperature;BME280_humidity;BME280_pressure;Samples;Min_cycle;Max_cycle;Signal;HPM_P1;HPM_P2
2023/05/09 00:01:11;;;;;;;7.80;4.80;;;;;;;10.27;33.73;101723.58;110999;1234;61245;-92
2023/05/09 00:03:38;;;;;;;6.00;3.80;;;;;;;10.23;33.82;101726.87;111051;1236;61201;-92
2023/05/09 00:06:06;;;;;;;7.10;3.90;;;;;;;10.19;33.94;101724.52;110864;1234;74918;-91
2023/05/09 00:08:33;;;;;;;6.70;3.80;;;;;;;10.15;33.93;101725.44;111026;1234;72832;-92
2023/05/09 00:11:01;;;;;;;9.40;4.20;;;;;;;10.12;34.08;101722.20;111087;1233;73096;-93
2023/05/09 00:13:28;;;;;;;6.60;4.20;;;;;;;10.09;34.11;101723.09;110976;1234;59845;-90
2023/05/09 00:15:56;;;;;;;7.10;4.10;;;;;;;10.07;34.13;101721.60;110893;1235;60605;-91
2023/05/09 00:18:23;;;;;;;8.00;4.90;;;;;;;10.04;34.29;101724.17;110993;1234;73647;-90
2023/05/09 00:20:50;;;;;;;7.40;4.00;;;;;;;10.03;34.49;101724.23;110792;1234;72408;-92
2023/05/09 00:23:16;;;;;;;7.10;4.20;;;;;;;9.98;34.45;101726.14;110936;1236;71584;-89
2023/05/09 00:25:43;;;;;;;7.10;4.10;;;;;;;9.96;34.54;101727.04;110904;1235;61446;-90
2023/05/09 00:28:10;;;;;;;7.50;4.30;;;;;;;9.92;34.66;101725.92;110986;1233;60448;-89
2023/05/09 00:30:37;;;;;;;8.50;4.70;;;;;;;9.89;34.77;101725.83;110910;1236;72744;-91
2023/05/09 00:33:05;;;;;;;7.50;4.10;;;;;;;9.87;34.68;101726.73;110966;1237;72960;-89
2023/05/09 00:35:33;;;;;;;8.90;4.30;;;;;;;9.86;34.91;101731.29;110973;1236;71976;-90
2023/05/09 00:38:00;;;;;;;10.10;4.40;;;;;;;9.86;34.97;101731.55;110957;1237;61229;-91
2023/05/09 00:40:30;;;;;;;7.30;4.30;;;;;;;9.84;35.01;101735.18;110941;1237;61184;-88
2023/05/09 00:42:58;;;;;;;7.80;4.50;;;;;;;9.82;35.00;101731.76;110969;1234;75889;-86
2023/05/09 00:45:25;;;;;;;9.50;4.70;;;;;;;9.80;35.06;101730.38;111050;1236;72209;-90
2023/05/09 00:47:53;;;;;;;6.60;4.30;;;;;;;9.80;35.08;101729.17;110861;1234;73054;-92
2023/05/09 00:50:23;;;;;;;8.70;4.60;;;;;;;9.77;35.13;101730.09;110788;1233;59848;-92
2023/05/09 00:52:50;;;;;;;7.00;4.00;;;;;;;9.75;35.20;101728.67;111016;1232;61197;-93
2023/05/09 00:55:17;;;;;;;7.20;3.80;;;;;;;9.73;35.35;101727.77;111024;1236;74309;-93
2023/05/09 00:57:47;;;;;;;8.10;4.40;;;;;;;9.73;35.41;101731.98;111070;1234;73379;-95
2023/05/09 01:00:14;;;;;;;6.80;4.00;;;;;;;9.74;35.34;101731.68;110863;1234;73535;-93
2023/05/09 01:02:42;;;;;;;9.00;4.20;;;;;;;9.76;35.32;101732.02;111021;1234;61255;-93
2023/05/09 01:05:10;;;;;;;7.90;3.90;;;;;;;9.77;35.32;101734.97;111100;1234;61582;-94
2023/05/09 01:07:51;;;;;;;6.10;4.10;;;;;;;9.76;35.30;101736.38;111032;1235;74837;-92
2023/05/09 01:10:49;;;;;;;7.30;3.70;;;;;;;9.75;35.47;101733.06;110995;1233;72330;-93
2023/05/09 01:13:17;;;;;;;10.10;4.60;;;;;;;9.74;35.45;101733.36;111021;1234;73497;-93
2023/05/09 01:15:44;;;;;;;8.70;4.90;;;;;;;9.72;35.59;101731.59;111082;1234;61534;-94
2023/05/09 01:18:28;;;;;;;6.50;3.90;;;;;;;9.70;35.60;101730.78;111079;1235;60352;-93
2023/05/09 01:20:56;;;;;;;8.20;4.00;;;;;;;9.70;35.54;101731.77;111226;1234;75405;-92
2023/05/09 01:23:43;;;;;;;6.50;3.70;;;;;;;9.67;35.64;101735.81;110886;1234;72543;-93
2023/05/09 01:26:35;;;;;;;6.60;3.80;;;;;;;9.66;35.87;101737.27;110913;1234;72862;-92
2023/05/09 01:29:13;;;;;;;8.60;4.60;;;;;;;9.62;35.88;101739.08;110890;1234;61092;-91
2023/05/09 01:31:42;;;;;;;7.50;4.20;;;;;;;9.60;36.12;101736.46;111019;1235;61226;-92
2023/05/09 01:34:10;;;;;;;6.70;3.80;;;;;;;9.57;36.18;101738.34;110919;1238;74877;-93
2023/05/09 01:36:37;;;;;;;6.70;4.20;;;;;;;9.54;36.04;101732.92;110879;1235;73603;-92
2023/05/09 01:39:04;;;;;;;6.40;3.90;;;;;;;9.51;36.14;101734.75;110731;1237;72236;-92
2023/05/09 01:41:37;;;;;;;8.10;4.30;;;;;;;9.49;36.19;101738.95;111017;1234;61358;-92
2023/05/09 01:44:05;;;;;;;9.10;4.50;;;;;;;9.48;36.25;101734.38;111029;1234;61110;-93
2023/05/09 01:46:32;;;;;;;7.60;4.50;;;;;;;9.46;36.42;101735.71;110829;1234;73587;-92
2023/05/09 01:49:00;;;;;;;7.00;3.90;;;;;;;9.43;36.46;101737.39;111070;1235;71540;-92
2023/05/09 01:51:27;;;;;;;8.30;3.90;;;;;;;9.39;36.52;101738.08;110828;1237;73440;-92
2023/05/09 01:53:54;;;;;;;6.00;3.70;;;;;;;9.36;36.63;101734.81;110667;1236;61098;-92
2023/05/09 01:56:21;;;;;;;6.90;4.00;;;;;;;9.32;36.72;101733.21;110825;1234;61074;-92
2023/05/09 01:58:49;;;;;;;6.30;4.00;;;;;;;9.28;36.76;101735.42;110720;1234;73228;-92
2023/05/09 02:01:16;;;;;;;6.30;3.70;;;;;;;9.25;36.80;101735.02;111076;1235;71213;-93
2023/05/09 02:03:44;;;;;;;7.30;4.20;;;;;;;9.20;36.90;101737.48;110873;1235;72476;-91
2023/05/09 02:06:11;;;;;;;7.00;3.80;;;;;;;9.14;37.08;101742.73;111023;1236;61181;-92
2023/05/09 02:08:40;;;;;;;7.00;4.00;;;;;;;9.09;37.14;101742.27;110771;1234;61024;-92
2023/05/09 02:11:07;;;;;;;6.90;3.90;;;;;;;9.06;37.16;101741.73;111189;1236;74893;-92
2023/05/09 02:13:37;;;;;;;6.00;3.90;;;;;;;9.02;37.23;101747.42;111087;1237;72742;-92
2023/05/09 02:16:06;;;;;;;6.90;3.80;;;;;;;8.96;37.40;101749.84;110827;1235;71437;-91
2023/05/09 02:18:37;;;;;;;7.50;3.90;;;;;;;8.91;37.53;101748.61;111071;1232;61162;-92
2023/05/09 02:21:05;;;;;;;7.90;4.20;;;;;;;8.87;37.60;101749.42;110998;1234;61917;-92
2023/05/09 02:23:32;;;;;;;7.80;3.70;;;;;;;8.83;37.79;101747.90;110969;1240;75136;-93
2023/05/09 02:26:00;;;;;;;7.70;4.30;;;;;;;8.78;37.97;101748.63;111006;1235;73819;-93
2023/05/09 02:28:27;;;;;;;7.50;4.00;;;;;;;8.73;37.96;101746.85;111166;1233;73387;-92
2023/05/09 02:30:54;;;;;;;6.60;4.10;;;;;;;8.67;38.13;101745.94;110938;1235;61207;-92
2023/05/09 02:33:23;;;;;;;7.00;3.90;;;;;;;8.63;38.17;101746.71;110912;1234;61213;-91
2023/05/09 02:35:49;;;;;;;7.90;4.20;;;;;;;8.60;38.27;101750.75;111074;1234;74884;-92
2023/05/09 02:38:18;;;;;;;8.40;3.80;;;;;;;8.57;38.31;101749.04;111172;1234;72207;-92
2023/05/09 02:40:45;;;;;;;7.00;3.80;;;;;;;8.54;38.48;101750.58;111176;1235;71428;-91
2023/05/09 02:43:14;;;;;;;6.60;3.90;;;;;;;8.50;38.49;101748.39;111122;1233;61232;-93
2023/05/09 02:45:41;;;;;;;6.80;4.00;;;;;;;8.49;38.63;101754.38;111107;1234;61072;-91
2023/05/09 02:48:08;;;;;;;7.70;3.80;;;;;;;8.48;38.68;101752.78;111147;1234;73073;-92
2023/05/09 02:50:40;;;;;;;8.70;4.10;;;;;;;8.47;38.66;101755.12;111138;1234;72948;-92
2023/05/09 02:53:08;;;;;;;7.40;3.20;;;;;;;8.47;38.68;101754.46;111101;1235;72002;-91
2023/05/09 02:55:35;;;;;;;5.80;3.80;;;;;;;8.48;38.76;101753.76;110990;1234;61178;-91
2023/05/09 02:58:02;;;;;;;6.20;4.00;;;;;;;8.50;38.86;101749.78;111128;1233;61168;-93
2023/05/09 03:00:41;;;;;;;6.40;3.90;;;;;;;8.54;38.91;101751.02;111198;1234;73207;-93
2023/05/09 03:03:08;;;;;;;8.20;3.90;;;;;;;8.59;38.91;101748.00;111390;1235;73063;-92
2023/05/09 03:05:36;;;;;;;8.90;4.60;;;;;;;8.64;38.77;101751.70;111271;1237;72365;-93
2023/05/09 03:08:04;;;;;;;6.60;3.80;;;;;;;8.70;38.89;101754.13;111089;1234;59916;-91
2023/05/09 03:10:33;;;;;;;8.30;4.50;;;;;;;8.75;38.82;101753.07;111231;1235;61045;-91
2023/05/09 03:13:00;;;;;;;8.90;4.80;;;;;;;8.79;38.68;101756.52;111223;1235;74122;-92
2023/05/09 03:15:27;;;;;;;10.00;4.90;;;;;;;8.81;38.53;101756.58;111221;1235;73896;-93
2023/05/09 03:17:54;;;;;;;9.80;4.90;;;;;;;8.84;38.61;101760.18;111025;1235;73641;-92
2023/05/09 03:20:21;;;;;;;8.40;4.60;;;;;;;8.86;38.57;101761.48;111237;1235;61127;-92
2023/05/09 03:22:49;;;;;;;9.10;4.50;;;;;;;8.87;38.35;101763.77;111264;1235;59001;-93
2023/05/09 03:25:16;;;;;;;7.50;3.90;;;;;;;8.91;38.36;101763.77;111086;1235;73666;-92
2023/05/09 03:27:43;;;;;;;5.10;3.30;;;;;;;8.94;38.43;101764.62;111178;1237;71244;-93
2023/05/09 03:30:13;;;;;;;6.80;3.70;;;;;;;8.98;38.49;101769.38;111099;1233;71642;-93
2023/05/09 03:32:43;;;;;;;6.60;3.70;;;;;;;9.02;38.46;101771.48;111207;1235;61104;-91
2023/05/09 03:35:10;;;;;;;6.80;3.60;;;;;;;9.06;38.27;101771.00;111211;1235;61022;-92
2023/05/09 03:37:38;;;;;;;6.00;3.60;;;;;;;9.12;38.24;101771.89;111371;1237;75444;-92
2023/05/09 03:40:06;;;;;;;5.20;3.40;;;;;;;9.22;38.39;101773.67;111266;1232;72940;-93
2023/05/09 03:42:40;;;;;;;6.50;3.80;;;;;;;9.29;38.08;101771.30;111219;1237;71348;-93
2023/05/09 03:45:08;;;;;;;7.00;3.10;;;;;;;9.39;37.99;101772.61;111152;1234;61331;-93
2023/05/09 03:47:36;;;;;;;7.20;3.80;;;;;;;9.48;37.85;101770.61;111070;1234;61125;-92
2023/05/09 03:50:04;;;;;;;9.00;4.20;;;;;;;9.57;37.64;101768.80;111103;1234;72306;-93
2023/05/09 03:52:32;;;;;;;5.80;3.80;;;;;;;9.66;37.54;101769.33;111253;1234;73204;-92
2023/05/09 03:55:02;;;;;;;5.10;3.30;;;;;;;9.74;37.40;101772.86;111239;1234;72142;-94
2023/05/09 03:57:34;;;;;;;9.40;4.00;;;;;;;9.84;37.32;101772.50;111218;1234;61077;-92
2023/05/09 04:00:03;;;;;;;7.30;4.20;;;;;;;9.94;37.26;101774.80;111509;1235;61098;-92
2023/05/09 04:02:41;;;;;;;6.80;4.20;;;;;;;10.06;36.87;101782.36;111213;1234;73949;-91
2023/05/09 04:05:12;;;;;;;6.10;3.40;;;;;;;10.14;36.47;101783.61;111246;1235;71829;-91
2023/05/09 04:07:40;;;;;;;5.60;3.50;;;;;;;10.22;36.38;101788.41;111686;1235;73449;-90
2023/05/09 04:10:08;;;;;;;7.30;4.40;;;;;;;10.29;36.29;101785.51;111638;1234;59866;-91
2023/05/09 04:12:36;;;;;;;7.50;3.60;;;;;;;10.40;36.13;101787.56;111383;1234;61146;-90
2023/05/09 04:15:03;;;;;;;6.90;3.70;;;;;;;10.47;36.05;101789.42;111584;1234;74482;-90
2023/05/09 04:17:31;;;;;;;5.30;3.80;;;;;;;10.57;35.92;101791.06;111467;1235;71753;-92
2023/05/09 04:19:58;;;;;;;6.70;3.90;;;;;;;10.67;35.80;101795.48;111415;1235;72662;-93
2023/05/09 04:22:25;;;;;;;6.20;3.30;;;;;;;10.78;35.72;101799.37;111371;1233;61046;-89
2023/05/09 04:24:52;;;;;;;8.80;4.30;;;;;;;10.89;35.59;101802.75;111355;1237;60297;-92
2023/05/09 04:27:19;;;;;;;7.20;4.20;;;;;;;11.00;35.63;101804.42;111418;1235;72928;-94
2023/05/09 04:29:48;;;;;;;7.10;3.70;;;;;;;11.12;35.47;101803.10;111397;1235;71621;-93
2023/05/09 04:32:15;;;;;;;5.90;3.90;;;;;;;11.20;35.25;101804.57;111094;1236;70952;-93
2023/05/09 04:34:42;;;;;;;7.50;3.90;;;;;;;11.28;35.12;101806.17;111086;1235;59716;-94
2023/05/09 04:37:15;;;;;;;8.40;3.80;;;;;;;11.36;34.71;101807.10;111433;1235;61342;-93
2023/05/09 04:39:43;;;;;;;6.10;3.80;;;;;;;11.43;34.68;101808.14;111572;1235;74575;-94
2023/05/09 04:42:17;;;;;;;8.10;3.90;;;;;;;11.52;34.76;101809.52;111778;1235;70497;-93
2023/05/09 04:44:46;;;;;;;5.10;3.10;;;;;;;11.59;34.60;101809.67;111766;1236;72109;-93
2023/05/09 04:47:14;;;;;;;5.70;3.20;;;;;;;11.62;34.63;101817.20;111681;1234;58995;-93
2023/05/09 04:49:50;;;;;;;5.60;3.30;;;;;;;11.67;34.54;101817.15;111745;1233;59894;-93
2023/05/09 04:52:17;;;;;;;6.50;4.20;;;;;;;11.76;34.51;101813.07;111648;1235;73560;-92
2023/05/09 04:54:44;;;;;;;5.70;3.50;;;;;;;11.88;34.43;101814.48;111703;1235;72819;-92
2023/05/09 04:57:12;;;;;;;7.50;3.30;;;;;;;11.95;33.84;101811.23;111241;1236;72580;-92
2023/05/09 04:59:47;;;;;;;4.90;3.10;;;;;;;11.95;33.83;101811.97;111484;1233;60402;-93
2023/05/09 05:02:14;;;;;;;5.60;3.20;;;;;;;12.01;33.92;101815.45;111233;1235;60734;-93
2023/05/09 05:04:42;;;;;;;4.80;2.70;;;;;;;12.10;33.93;101810.56;111247;1235;72668;-93
2023/05/09 05:07:09;;;;;;;6.00;3.10;;;;;;;12.19;33.69;101815.99;111198;1235;72338;-93
2023/05/09 05:09:37;;;;;;;5.90;3.30;;;;;;;12.26;33.37;101816.98;111390;1234;72899;-93
2023/05/09 05:12:06;;;;;;;6.00;3.10;;;;;;;12.32;33.57;101815.30;111652;1235;61144;-95
2023/05/09 05:14:36;;;;;;;5.60;3.20;;;;;;;12.43;33.75;101820.98;111399;1235;199989;-94
2023/05/09 05:17:04;;;;;;;5.50;3.40;;;;;;;12.60;33.50;101817.54;111550;1235;73617;-92
2023/05/09 05:19:31;;;;;;;7.30;3.30;;;;;;;12.75;32.98;101817.02;111237;1236;72192;-92
2023/05/09 05:21:59;;;;;;;6.20;2.90;;;;;;;12.83;32.90;101817.92;111588;1233;70586;-95
2023/05/09 05:24:28;;;;;;;4.60;2.70;;;;;;;12.92;33.25;101817.48;111866;1235;59244;-94
2023/05/09 05:26:55;;;;;;;4.90;2.90;;;;;;;13.01;33.22;101815.05;111554;1235;61075;-93
2023/05/09 05:29:22;;;;;;;5.50;3.30;;;;;;;13.09;32.97;101814.98;111693;1233;73784;-94
2023/05/09 05:31:49;;;;;;;7.30;3.10;;;;;;;13.15;32.75;101813.31;111607;1234;70713;-93
2023/05/09 05:34:17;;;;;;;5.40;3.20;;;;;;;13.23;32.51;101810.08;111646;1235;72624;-93
2023/05/09 05:36:46;;;;;;;4.90;2.50;;;;;;;13.32;32.45;101813.56;111769;1234;61197;-94
2023/05/09 05:39:13;;;;;;;5.50;2.80;;;;;;;13.37;32.19;101813.43;111691;1233;59689;-93
2023/05/09 05:41:42;;;;;;;7.60;3.50;;;;;;;13.41;32.26;101814.02;111202;1235;72244;-93
2023/05/09 05:44:09;;;;;;;6.20;2.90;;;;;;;13.50;31.98;101811.25;111825;1234;72671;-94
2023/05/09 05:46:37;;;;;;;4.80;2.80;;;;;;;13.62;32.42;101810.52;111609;1233;72779;-94
2023/05/09 05:49:05;;;;;;;5.90;3.30;;;;;;;13.73;31.62;101808.79;111493;1235;61126;-94
2023/05/09 05:51:35;;;;;;;6.70;3.20;;;;;;;13.78;31.54;101808.60;111507;1234;61131;-92
2023/05/09 05:54:03;;;;;;;6.10;3.60;;;;;;;13.82;31.37;101805.61;111299;1234;73834;-92
2023/05/09 05:56:30;;;;;;;5.90;2.80;;;;;;;13.83;31.21;101807.12;111359;1235;72611;-92
2023/05/09 05:58:57;;;;;;;6.60;3.20;;;;;;;13.82;31.26;101808.63;111525;1233;71737;-94
2023/05/09 06:01:25;;;;;;;6.30;2.90;;;;;;;13.87;31.30;101812.60;111659;1233;61281;-94
2023/05/09 06:03:53;;;;;;;7.30;2.70;;;;;;;13.92;31.30;101812.59;111613;1234;59867;-94
2023/05/09 06:06:21;;;;;;;4.60;2.40;;;;;;;14.01;31.34;101808.48;111651;1232;73581;-92
2023/05/09 06:08:50;;;;;;;5.10;2.60;;;;;;;14.11;30.74;101803.38;111484;1235;72695;-93
2023/05/09 06:11:17;;;;;;;5.10;2.70;;;;;;;14.24;31.14;101803.81;111378;1233;71461;-93
2023/05/09 06:13:45;;;;;;;4.40;2.20;;;;;;;14.46;31.27;101807.84;111405;1235;60988;-95
2023/05/09 06:16:12;;;;;;;5.40;2.50;;;;;;;14.68;30.63;101807.92;111427;1235;61926;-93
2023/05/09 06:18:50;;;;;;;6.20;2.70;;;;;;;14.86;30.29;101802.92;111927;1232;72631;-93
2023/05/09 06:21:29;;;;;;;5.10;2.80;;;;;;;14.94;30.04;101804.15;111927;1236;72490;-92
2023/05/09 06:24:10;;;;;;;4.60;2.20;;;;;;;15.00;30.06;101803.86;112125;1234;72234;-93
2023/05/09 06:26:56;;;;;;;4.60;2.60;;;;;;;15.08;29.67;101800.71;111972;1233;60161;-93
2023/05/09 06:29:24;;;;;;;4.50;2.40;;;;;;;15.12;29.72;101802.41;112315;1234;60130;-93
2023/05/09 06:31:52;;;;;;;3.60;2.20;;;;;;;15.16;30.11;101797.39;112382;1232;74363;-96
2023/05/09 06:34:21;;;;;;;5.20;2.40;;;;;;;15.26;29.60;101797.45;111907;1232;71772;-92
2023/05/09 06:36:49;;;;;;;4.60;2.30;;;;;;;15.30;28.98;101795.16;111710;1236;71505;-91
2023/05/09 06:39:17;;;;;;;4.10;2.10;;;;;;;15.21;28.83;101797.48;111417;1232;59869;-93
2023/05/09 06:41:45;;;;;;;6.60;2.30;;;;;;;15.19;29.09;101799.89;111666;1231;61089;-93
2023/05/09 06:44:18;;;;;;;4.10;2.00;;;;;;;15.23;29.09;101795.30;111214;1231;74977;-93
2023/05/09 06:46:45;;;;;;;4.40;1.90;;;;;;;15.28;29.09;101793.22;111109;1232;71903;-92
2023/05/09 06:49:13;;;;;;;4.90;2.50;;;;;;;15.39;28.80;101790.39;111145;1236;71242;-93
2023/05/09 06:51:40;;;;;;;6.20;1.90;;;;;;;15.54;28.71;101793.08;111290;1231;61448;-89
2023/05/09 06:54:07;;;;;;;6.10;2.20;;;;;;;15.69;28.46;101788.83;111167;1235;60272;-92
2023/05/09 06:56:35;;;;;;;6.30;2.00;;;;;;;15.76;27.86;101786.02;111286;1235;74820;-93
2023/05/09 06:59:04;;;;;;;4.90;2.00;;;;;;;15.83;27.70;101780.77;111373;1231;73567;-93
2023/05/09 07:01:34;;;;;;;4.00;2.10;;;;;;;15.92;27.76;101776.61;111429;1231;71015;-92
2023/05/09 07:04:01;;;;;;;5.50;1.90;;;;;;;16.05;28.19;101775.86;111286;1232;61223;-93
2023/05/09 07:06:29;;;;;;;5.60;2.00;;;;;;;16.17;27.66;101770.08;111194;1231;60954;-94
2023/05/09 07:08:56;;;;;;;3.80;1.80;;;;;;;16.25;27.19;101770.80;111271;1236;75590;-91
2023/05/09 07:11:22;;;;;;;3.90;1.70;;;;;;;16.23;26.33;101767.66;111043;1231;71010;-92
2023/05/09 07:13:51;;;;;;;4.70;2.00;;;;;;;16.18;26.26;101768.89;111269;1231;71703;-93
2023/05/09 07:16:21;;;;;;;2.70;1.60;;;;;;;16.17;26.07;101760.91;111287;1231;59965;-93
2023/05/09 07:18:48;;;;;;;3.40;1.60;;;;;;;16.18;26.25;101756.88;111604;1237;61077;-89
2023/05/09 07:21:15;;;;;;;3.50;1.70;;;;;;;16.24;25.61;101759.64;111559;1232;74974;-91
2023/05/09 07:23:49;;;;;;;5.00;1.60;;;;;;;16.22;25.19;101759.25;111444;1231;71246;-93
2023/05/09 07:26:16;;;;;;;7.40;1.70;;;;;;;16.14;25.27;101757.02;111830;1231;72154;-92
2023/05/09 07:28:43;;;;;;;3.90;1.50;;;;;;;16.14;25.65;101757.72;111686;1234;61242;-92
2023/05/09 07:31:10;;;;;;;2.40;1.60;;;;;;;16.17;25.53;101751.81;111419;1231;61070;-92
2023/05/09 07:33:38;;;;;;;2.50;1.30;;;;;;;16.15;25.12;101746.29;111593;1233;72705;-91
2023/05/09 07:36:05;;;;;;;3.00;1.60;;;;;;;16.12;25.73;101739.94;111212;1231;70762;-91
2023/05/09 07:38:32;;;;;;;4.00;1.80;;;;;;;16.17;26.06;101738.75;111416;1231;72982;-92
2023/05/09 07:41:00;;;;;;;4.40;1.70;;;;;;;16.28;25.42;101740.08;111361;1231;61222;-92
2023/05/09 07:43:26;;;;;;;4.90;2.00;;;;;;;16.31;25.21;101737.32;111441;1231;61079;-90
2023/05/09 07:45:53;;;;;;;2.70;1.60;;;;;;;16.31;24.57;101734.10;111408;1235;73624;-91
2023/05/09 07:48:20;;;;;;;4.40;2.30;;;;;;;16.30;24.80;101729.63;111318;1236;72171;-92
2023/05/09 07:50:47;;;;;;;2.90;1.70;;;;;;;16.38;24.34;101728.67;111315;1231;71945;-92
2023/05/09 07:53:15;;;;;;;2.70;1.40;;;;;;;16.49;23.48;101716.22;111404;1232;61122;-92
2023/05/09 07:55:43;;;;;;;3.60;1.70;;;;;;;16.57;24.00;101720.07;111409;1231;61085;-90
2023/05/09 07:58:12;;;;;;;3.80;1.70;;;;;;;16.80;24.39;101715.35;111431;1231;72957;-92
2023/05/09 08:00:39;;;;;;;2.40;1.30;;;;;;;17.03;24.12;101706.86;111371;1231;72046;-89
2023/05/09 08:03:06;;;;;;;4.50;1.60;;;;;;;17.14;22.39;101720.07;111457;1235;70264;-91
2023/05/09 08:05:34;;;;;;;4.40;1.60;;;;;;;17.10;22.00;101717.86;111335;1231;59392;-91
2023/05/09 08:08:01;;;;;;;4.10;1.50;;;;;;;17.01;21.66;101717.93;111358;1231;61187;-94
2023/05/09 08:10:32;;;;;;;3.40;1.60;;;;;;;16.94;20.87;101718.52;111292;1232;73980;-90
2023/05/09 08:13:02;;;;;;;3.60;1.60;;;;;;;16.88;20.99;101717.98;111394;1231;73482;-93
2023/05/09 08:15:30;;;;;;;3.90;1.80;;;;;;;16.87;21.28;101715.30;111169;1231;71237;-92
2023/05/09 08:17:57;;;;;;;4.10;1.60;;;;;;;16.88;21.37;101714.92;111293;1231;61261;-91
2023/05/09 08:20:25;;;;;;;3.30;1.60;;;;;;;16.92;21.32;101710.48;111321;1236;61223;-92
2023/05/09 08:22:53;;;;;;;3.90;1.70;;;;;;;17.00;21.78;101707.23;111331;1231;75503;-90
2023/05/09 08:25:19;;;;;;;2.80;1.60;;;;;;;17.08;21.68;101714.51;111408;1231;73784;-91
2023/05/09 08:27:46;;;;;;;3.30;1.60;;;;;;;17.12;20.98;101710.09;111555;1231;70472;-91
2023/05/09 08:30:14;;;;;;;4.80;1.70;;;;;;;17.07;20.76;101710.52;111537;1231;61201;-92
2023/05/09 08:32:41;;;;;;;3.00;1.70;;;;;;;17.04;20.71;101708.30;111455;1232;61178;-91
2023/05/09 08:35:08;;;;;;;5.10;1.70;;;;;;;17.05;21.07;101705.28;111550;1231;73283;-92
2023/05/09 08:37:36;;;;;;;3.00;1.50;;;;;;;17.08;21.20;101706.69;111683;1231;71555;-92
2023/05/09 08:40:06;;;;;;;3.50;1.70;;;;;;;17.10;21.56;101703.40;111444;1231;73684;-93
2023/05/09 08:42:38;;;;;;;4.10;2.10;;;;;;;17.15;20.76;101698.48;111412;1231;61112;-92
2023/05/09 08:45:08;;;;;;;4.50;1.90;;;;;;;17.19;20.89;101698.03;111463;1231;61197;-91
2023/05/09 08:47:36;;;;;;;3.40;1.70;;;;;;;17.33;21.34;101694.55;111598;1231;75744;-92
2023/05/09 08:50:03;;;;;;;4.30;1.60;;;;;;;17.50;21.50;101690.16;111629;1231;72176;-92
2023/05/09 08:52:32;;;;;;;3.30;1.60;;;;;;;17.70;21.36;101693.48;111656;1231;71613;-93
2023/05/09 08:55:03;;;;;;;4.00;1.80;;;;;;;17.90;21.38;101690.02;111687;1231;61217;-90
2023/05/09 08:57:31;;;;;;;;;;;;;;;18.16;20.84;101689.11;111648;1231;61308;-92
2023/05/09 08:59:58;;;;;;;2.50;1.50;;;;;;;18.29;19.93;101683.14;111699;1231;72948;-91
2023/05/09 09:02:25;;;;;;;9.10;2.00;;;;;;;18.28;20.26;101684.98;111294;1236;72452;-91
2023/05/09 09:04:53;;;;;;;2.50;1.50;;;;;;;18.34;20.33;101680.94;111493;1231;72587;-91
2023/05/09 09:07:20;;;;;;;2.30;1.40;;;;;;;18.36;19.66;101682.16;111564;1231;61182;-93
2023/05/09 09:09:48;;;;;;;3.60;1.80;;;;;;;18.28;19.57;101684.17;111380;1231;60972;-90
2023/05/09 09:12:16;;;;;;;2.50;1.50;;;;;;;18.21;19.29;101687.46;111742;1231;73974;-91
2023/05/09 09:14:49;;;;;;;2.70;1.60;;;;;;;18.16;19.36;101683.17;112266;1231;70900;-91
2023/05/09 09:17:18;;;;;;;3.50;1.40;;;;;;;18.10;19.70;101681.58;112359;1231;71731;-88
2023/05/09 09:19:50;;;;;;;3.30;1.40;;;;;;;18.15;20.04;101679.34;112349;1232;59085;-91
2023/05/09 09:22:18;;;;;;;3.80;1.60;;;;;;;18.29;20.14;101680.21;112398;1231;60013;-82
2023/05/09 09:24:44;;;;;;;2.70;1.60;;;;;;;18.40;20.16;101679.48;112229;1232;73677;-92
2023/05/09 09:27:11;;;;;;;2.00;1.40;;;;;;;18.42;19.60;101676.94;112271;1231;72761;-92
2023/05/09 09:29:39;;;;;;;3.40;1.80;;;;;;;18.33;19.62;101674.17;112383;1231;71002;-89
2023/05/09 09:32:07;;;;;;;4.30;1.60;;;;;;;18.16;19.84;101674.35;112437;1233;59261;-89
2023/05/09 09:34:33;;;;;;;2.90;1.50;;;;;;;18.12;20.03;101673.13;112404;1231;58481;-90
2023/05/09 09:37:01;;;;;;;4.60;1.70;;;;;;;18.23;20.28;101672.90;112257;1232;74132;-91
2023/05/09 09:39:30;;;;;;;2.80;1.70;;;;;;;18.36;19.69;101667.73;112413;1231;72383;-92
2023/05/09 09:41:56;;;;;;;3.20;1.60;;;;;;;18.41;20.11;101664.70;112260;1232;71621;-90
2023/05/09 09:44:24;;;;;;;3.90;1.50;;;;;;;18.46;19.90;101670.19;112242;1237;59269;-94
2023/05/09 09:46:52;;;;;;;3.60;1.40;;;;;;;18.46;20.65;101672.08;112157;1232;59175;-91
2023/05/09 09:49:23;;;;;;;2.60;1.40;;;;;;;18.49;20.18;101665.23;111498;1232;73606;-90
2023/05/09 09:51:55;;;;;;;4.00;1.90;;;;;;;18.48;20.49;101664.70;111302;1235;73110;-91
2023/05/09 09:54:22;;;;;;;4.10;1.60;;;;;;;18.49;20.00;101662.31;111427;1232;73682;-94
2023/05/09 09:56:50;;;;;;;3.20;1.50;;;;;;;18.57;19.75;101660.20;111235;1231;61251;-91
2023/05/09 09:59:23;;;;;;;3.80;1.70;;;;;;;18.65;19.85;101659.80;111331;1232;61127;-93
2023/05/09 10:02:05;;;;;;;2.70;1.60;;;;;;;18.70;19.33;101661.48;111400;1231;73367;-88
2023/05/09 10:04:36;;;;;;;4.20;1.70;;;;;;;18.74;19.22;101663.42;111364;1232;70870;-90
2023/05/09 10:07:05;;;;;;;2.50;1.60;;;;;;;18.63;19.14;101666.48;111314;1234;72887;-93
2023/05/09 10:09:32;;;;;;;2.40;1.50;;;;;;;18.46;19.07;101665.70;111454;1232;60653;-93
2023/05/09 10:12:05;;;;;;;3.30;1.70;;;;;;;18.38;19.61;101659.48;111565;1232;61478;-91
2023/05/09 10:14:34;;;;;;;3.50;1.50;;;;;;;18.44;19.55;101655.75;111918;1231;73543;-92
2023/05/09 10:17:04;;;;;;;3.80;1.90;;;;;;;18.63;19.78;101655.70;111487;1232;72429;-91
2023/05/09 10:19:32;;;;;;;4.20;2.30;;;;;;;18.80;19.50;101651.96;111271;1232;70921;-90
2023/05/09 10:22:04;;;;;;;4.80;2.00;;;;;;;18.77;19.23;101654.15;111356;1232;61187;-89
2023/05/09 10:24:37;;;;;;;3.30;1.70;;;;;;;18.64;19.22;101658.39;111370;1232;60308;-91
2023/05/09 10:27:08;;;;;;;2.70;1.50;;;;;;;18.42;19.56;101656.42;111377;1232;73942;-90
2023/05/09 10:29:43;;;;;;;3.50;1.80;;;;;;;18.21;19.74;101656.20;111228;1232;72582;-93
2023/05/09 10:32:31;;;;;;;3.00;1.60;;;;;;;18.02;19.65;101656.97;111220;1232;71655;-92
2023/05/09 10:35:01;;;;;;;3.70;1.50;;;;;;;17.85;19.67;101651.99;111270;1237;61090;-90
2023/05/09 10:37:28;;;;;;;4.40;2.20;;;;;;;17.82;19.98;101646.38;111009;1232;61145;-92
2023/05/09 10:40:00;;;;;;;3.20;1.60;;;;;;;17.78;20.26;101647.60;111198;1237;74402;-92
2023/05/09 10:42:27;;;;;;;5.30;1.80;;;;;;;17.91;20.56;101646.66;111267;1232;70931;-92
2023/05/09 10:44:54;;;;;;;4.20;1.70;;;;;;;18.13;20.76;101644.73;110884;1231;71359;-90
2023/05/09 10:47:26;;;;;;;3.80;1.50;;;;;;;18.30;19.65;101636.50;111236;1232;60760;-92
2023/05/09 10:49:54;;;;;;;3.20;1.40;;;;;;;18.44;19.92;101634.33;111093;1233;60187;-91
2023/05/09 10:52:21;;;;;;;2.50;1.50;;;;;;;18.63;19.75;101634.34;110929;1232;74624;-92
2023/05/09 10:55:02;;;;;;;3.80;1.60;;;;;;;18.77;18.65;101630.32;110891;1232;73770;-92
2023/05/09 10:57:31;;;;;;;4.30;1.80;;;;;;;18.69;18.49;101628.42;110856;1232;72605;-93
2023/05/09 10:59:59;;;;;;;3.90;1.90;;;;;;;18.62;18.92;101627.19;110927;1232;61127;-90
2023/05/09 11:02:29;;;;;;;3.80;1.50;;;;;;;18.82;19.21;101624.70;110962;1232;61560;-88
2023/05/09 11:05:18;;;;;;;3.00;1.70;;;;;;;19.08;18.93;101624.86;111557;1232;73915;-92
2023/05/09 11:11:24;;;;;;;3.30;1.80;;;;;;;19.50;19.00;101616.84;111129;1232;72025;-89
2023/05/09 11:13:56;;;;;;;2.90;1.40;;;;;;;19.37;18.59;101620.18;111238;1232;59957;-93
2023/05/09 11:16:23;;;;;;;4.10;1.60;;;;;;;19.16;18.62;101619.13;111181;1232;59919;-92
2023/05/09 11:18:52;;;;;;;2.40;1.40;;;;;;;18.96;19.21;101619.80;111156;1232;75109;-94
2023/05/09 11:21:19;;;;;;;4.30;1.90;;;;;;;18.85;19.75;101618.45;111332;1232;73825;-94
2023/05/09 11:23:47;;;;;;;4.10;1.90;;;;;;;18.79;19.22;101614.17;111977;1232;71334;-94
2023/05/09 11:26:16;;;;;;;3.70;1.60;;;;;;;18.80;19.34;101605.73;111825;1232;59963;-94
2023/05/09 11:28:52;;;;;;;5.50;2.20;;;;;;;18.95;18.81;101605.72;111646;1232;59353;-93
2023/05/09 11:31:19;;;;;;;3.60;1.90;;;;;;;18.90;18.72;101603.94;111600;1232;74247;-92